createdAt,value
2023-04-18T00:00:48.656Z,7.90
2023-04-18T00:03:15.076Z,7.91
2023-04-18T00:05:41.456Z,7.66
2023-04-18T00:08:07.708Z,7.30
2023-04-18T00:10:33.978Z,7.06
2023-04-18T00:13:00.226Z,6.90
2023-04-18T00:15:26.467Z,6.53
2023-04-18T00:17:52.841Z,6.22
2023-04-18T00:20:19.124Z,6.57
2023-04-18T00:22:45.359Z,6.68
2023-04-18T00:25:11.590Z,6.55
2023-04-18T00:27:37.829Z,6.72
2023-04-18T00:30:04.108Z,6.80
2023-04-18T00:32:30.441Z,6.63
2023-04-18T00:34:56.692Z,6.61
2023-04-18T00:37:22.959Z,6.43
2023-04-18T00:39:49.197Z,6.63
2023-04-18T00:42:15.420Z,6.87
2023-04-18T00:44:41.651Z,7.33
2023-04-18T00:47:07.903Z,7.44
2023-04-18T00:49:34.195Z,7.20
2023-04-18T00:52:00.458Z,7.45
2023-04-18T00:54:26.677Z,7.41
2023-04-18T00:56:52.924Z,7.55
2023-04-18T00:59:19.171Z,7.60
2023-04-18T01:01:45.488Z,7.47
2023-04-18T01:04:12.224Z,7.14
2023-04-18T01:06:38.842Z,7.02
2023-04-18T01:09:05.074Z,6.91
2023-04-18T01:11:31.346Z,6.63
2023-04-18T01:13:57.601Z,6.73
2023-04-18T01:16:23.925Z,6.96
2023-04-18T01:18:50.312Z,6.94
2023-04-18T01:21:16.578Z,6.80
2023-04-18T01:23:42.851Z,6.64
2023-04-18T01:26:09.087Z,6.57
2023-04-18T01:28:35.345Z,6.47
2023-04-18T01:31:01.803Z,6.57
2023-04-18T01:33:28.110Z,6.27
2023-04-18T01:35:54.372Z,6.49
2023-04-18T01:38:20.644Z,6.72
2023-04-18T01:40:46.898Z,6.94
2023-04-18T01:43:13.178Z,7.13
2023-04-18T01:45:39.450Z,7.45
2023-04-18T01:48:05.677Z,7.84
2023-04-18T01:50:31.960Z,7.67
2023-04-18T01:52:58.260Z,7.41
2023-04-18T01:55:24.502Z,6.79
2023-04-18T01:57:50.736Z,6.39
2023-04-18T02:00:16.964Z,6.54
2023-04-18T02:02:43.435Z,6.67
2023-04-18T02:05:09.874Z,6.57
2023-04-18T02:07:36.103Z,6.74
2023-04-18T02:10:02.339Z,6.73
2023-04-18T02:12:28.584Z,6.57
2023-04-18T02:14:54.850Z,6.28
2023-04-18T02:17:21.183Z,6.24
2023-04-18T02:19:47.452Z,6.25
2023-04-18T02:22:13.671Z,6.12
2023-04-18T02:24:39.920Z,6.29
2023-04-18T02:27:06.215Z,6.34
2023-04-18T02:29:32.500Z,6.47
2023-04-18T02:31:58.783Z,6.65
2023-04-18T02:34:25.024Z,7.01
2023-04-18T02:36:51.267Z,7.17
2023-04-18T02:39:17.536Z,7.25
2023-04-18T02:41:43.795Z,7.30
2023-04-18T02:44:10.055Z,7.07
2023-04-18T02:46:36.281Z,6.88
2023-04-18T02:49:02.508Z,6.78
2023-04-18T02:51:28.737Z,6.39
2023-04-18T02:53:54.993Z,6.42
2023-04-18T02:56:21.312Z,6.33
2023-04-18T02:58:47.562Z,6.07
2023-04-18T03:01:13.813Z,6.19
2023-04-18T03:03:40.064Z,6.05
2023-04-18T03:06:06.343Z,6.13
2023-04-18T03:08:32.647Z,5.93
2023-04-18T03:10:58.900Z,5.80
2023-04-18T03:13:25.181Z,5.87
2023-04-18T03:15:51.502Z,5.98
2023-04-18T03:18:17.746Z,6.37
2023-04-18T03:20:43.992Z,6.29
2023-04-18T03:23:10.294Z,6.64
2023-04-18T03:25:36.600Z,6.30
2023-04-18T03:28:02.882Z,6.25
2023-04-18T03:30:29.183Z,5.76
2023-04-18T03:32:55.498Z,5.63
2023-04-18T03:35:21.730Z,5.60
2023-04-18T03:37:47.989Z,5.83
2023-04-18T03:40:14.262Z,6.24
2023-04-18T03:42:40.520Z,6.53
2023-04-18T03:45:06.746Z,6.56
2023-04-18T03:47:32.998Z,6.00
2023-04-18T03:49:59.246Z,6.01
2023-04-18T03:52:25.852Z,5.97
2023-04-18T03:54:52.788Z,6.10
2023-04-18T03:57:19.050Z,5.58
2023-04-18T03:59:47.734Z,5.44
2023-04-18T04:02:14.279Z,5.45
2023-04-18T04:04:40.679Z,5.62
2023-04-18T04:07:06.982Z,5.85
2023-04-18T04:09:33.217Z,6.06
2023-04-18T04:11:59.459Z,6.07
2023-04-18T04:14:25.703Z,5.92
2023-04-18T04:16:51.982Z,5.68
2023-04-18T04:19:18.221Z,5.43
2023-04-18T04:21:44.454Z,5.34
2023-04-18T04:24:10.693Z,5.44
2023-04-18T04:26:36.948Z,5.53
2023-04-18T04:29:03.215Z,5.32
2023-04-18T04:31:29.519Z,5.24
2023-04-18T04:33:55.878Z,5.07
2023-04-18T04:36:22.111Z,4.97
2023-04-18T04:38:48.375Z,5.08
2023-04-18T04:41:14.614Z,5.09
2023-04-18T04:43:40.874Z,5.38
2023-04-18T04:46:07.107Z,5.64
2023-04-18T04:48:33.349Z,5.81
2023-04-18T04:50:59.638Z,6.11
2023-04-18T04:53:25.857Z,6.33
2023-04-18T04:55:52.106Z,6.36
2023-04-18T04:58:18.390Z,5.96
2023-04-18T05:00:44.630Z,5.37
2023-04-18T05:03:11.017Z,5.29
2023-04-18T05:05:37.361Z,5.18
2023-04-18T05:08:03.608Z,5.39
2023-04-18T05:10:29.835Z,5.65
2023-04-18T05:12:56.072Z,5.74
2023-04-18T05:15:22.368Z,6.03
2023-04-18T05:17:48.675Z,6.12
2023-04-18T05:20:15.025Z,5.51
2023-04-18T05:22:41.282Z,5.25
2023-04-18T05:25:07.562Z,5.33
2023-04-18T05:27:33.876Z,5.49
2023-04-18T05:30:00.188Z,5.99
2023-04-18T05:32:26.474Z,6.35
2023-04-18T05:34:52.734Z,6.60
2023-04-18T05:37:18.948Z,6.72
2023-04-18T05:39:45.212Z,6.48
2023-04-18T05:42:11.493Z,6.70
2023-04-18T05:44:37.721Z,6.44
2023-04-18T05:47:03.967Z,6.11
2023-04-18T05:49:30.210Z,6.10
2023-04-18T05:51:56.487Z,6.33
2023-04-18T05:54:22.792Z,7.05
2023-04-18T05:56:49.014Z,7.70
2023-04-18T05:59:15.305Z,8.18
2023-04-18T06:01:41.594Z,8.64
2023-04-18T06:04:07.923Z,8.95
2023-04-18T06:06:34.306Z,8.38
2023-04-18T06:09:00.549Z,8.37
2023-04-18T06:11:26.793Z,8.36
2023-04-18T06:13:53.074Z,8.92
2023-04-18T06:16:19.351Z,8.97
2023-04-18T06:18:45.597Z,8.40
2023-04-18T06:21:11.824Z,8.19
2023-04-18T06:23:38.061Z,8.25
2023-04-18T06:26:04.335Z,8.22
2023-04-18T06:28:30.639Z,8.06
2023-04-18T06:30:56.880Z,8.18
2023-04-18T06:33:23.131Z,8.26
2023-04-18T06:35:49.383Z,8.00
2023-04-18T06:38:15.662Z,8.08
2023-04-18T06:40:41.931Z,8.16
2023-04-18T06:43:08.163Z,8.49
2023-04-18T06:45:34.453Z,8.16
2023-04-18T06:48:00.774Z,8.22
2023-04-18T06:50:27.026Z,7.95
2023-04-18T06:52:53.272Z,8.01
2023-04-18T06:55:19.503Z,8.40
2023-04-18T06:57:45.742Z,8.90
2023-04-18T07:00:11.967Z,9.12
2023-04-18T07:02:38.388Z,8.72
2023-04-18T07:05:04.779Z,8.30
2023-04-18T07:07:31.036Z,8.24
2023-04-18T07:09:57.274Z,8.08
2023-04-18T07:12:23.572Z,8.37
2023-04-18T07:14:49.819Z,8.65
2023-04-18T07:17:16.245Z,8.71
2023-04-18T07:19:42.550Z,9.10
2023-04-18T07:22:08.783Z,8.92
2023-04-18T07:24:35.025Z,8.76
2023-04-18T07:27:01.347Z,8.81
2023-04-18T07:29:27.735Z,8.93
2023-04-18T07:31:54.085Z,8.98
2023-04-18T07:34:20.417Z,9.13
2023-04-18T07:36:46.694Z,9.02
2023-04-18T07:39:12.925Z,8.82
2023-04-18T07:41:39.197Z,8.90
2023-04-18T07:44:05.439Z,8.85
2023-04-18T07:46:31.710Z,8.80
2023-04-18T07:48:57.985Z,9.22
2023-04-18T07:51:24.236Z,9.02
2023-04-18T07:53:50.482Z,8.99
2023-04-18T07:56:16.720Z,8.98
2023-04-18T07:58:42.955Z,9.31
2023-04-18T08:01:09.243Z,9.17
2023-04-18T08:03:35.588Z,9.14
2023-04-18T08:06:01.928Z,9.48
2023-04-18T08:08:28.233Z,9.59
2023-04-18T08:10:54.474Z,9.88
2023-04-18T08:13:20.737Z,9.85
2023-04-18T08:15:47.069Z,9.80
2023-04-18T08:18:13.348Z,9.70
2023-04-18T08:20:39.616Z,9.52
2023-04-18T08:23:09.549Z,9.79
2023-04-18T08:25:37.664Z,9.67
2023-04-18T08:28:05.295Z,9.68
2023-04-18T08:30:31.669Z,9.94
2023-04-18T08:32:58.009Z,9.74
2023-04-18T08:35:24.360Z,9.43
2023-04-18T08:37:50.595Z,9.84
2023-04-18T08:40:16.875Z,9.73
2023-04-18T08:42:43.137Z,9.79
2023-04-18T08:45:09.364Z,9.79
2023-04-18T08:47:35.654Z,10.05
2023-04-18T08:50:01.937Z,10.55
2023-04-18T08:52:28.188Z,10.31
2023-04-18T08:54:54.604Z,10.66
2023-04-18T08:57:21.078Z,10.95
2023-04-18T08:59:49.626Z,10.22
2023-04-18T09:02:17.149Z,10.19
2023-04-18T09:04:43.403Z,10.67
2023-04-18T09:07:09.653Z,10.63
2023-04-18T09:09:35.908Z,10.36
2023-04-18T09:12:02.142Z,10.70
2023-04-18T09:14:28.377Z,10.57
2023-04-18T09:16:54.662Z,10.68
2023-04-18T09:19:20.940Z,10.30
2023-04-18T09:21:47.206Z,10.74
2023-04-18T09:24:13.633Z,11.40
2023-04-18T09:26:40.073Z,10.83
2023-04-18T09:29:06.325Z,11.06
2023-04-18T09:31:32.757Z,10.95
2023-04-18T09:33:59.135Z,11.46
2023-04-18T09:36:25.399Z,11.50
2023-04-18T09:38:53.711Z,11.81
2023-04-18T09:41:21.770Z,11.77
2023-04-18T09:43:48.024Z,10.98
2023-04-18T09:46:14.339Z,11.66
2023-04-18T09:48:40.643Z,11.61
2023-04-18T09:51:06.918Z,11.52
2023-04-18T09:53:33.190Z,11.77
2023-04-18T09:55:59.430Z,11.49
2023-04-18T09:58:25.645Z,11.91
2023-04-18T10:00:51.902Z,11.90
2023-04-18T10:03:18.407Z,11.42
2023-04-18T10:05:44.853Z,11.48
2023-04-18T10:08:11.126Z,11.63
2023-04-18T10:10:38.919Z,11.55
2023-04-18T10:13:05.454Z,11.89
2023-04-18T10:15:31.767Z,11.90
2023-04-18T10:18:04.339Z,11.99
2023-04-18T10:20:32.250Z,12.57
2023-04-18T10:22:58.504Z,12.24
2023-04-18T10:25:24.757Z,12.30
2023-04-18T10:27:51.036Z,12.50
2023-04-18T10:30:17.326Z,12.25
2023-04-18T10:32:43.592Z,12.35
2023-04-18T10:35:09.829Z,12.20
2023-04-18T10:37:36.071Z,12.37
2023-04-18T10:40:02.316Z,12.54
2023-04-18T10:42:28.562Z,12.85
2023-04-18T10:44:54.821Z,13.03
2023-04-18T10:47:21.189Z,13.47
2023-04-18T10:49:47.498Z,13.49
2023-04-18T10:52:13.742Z,12.99
2023-04-18T10:54:40.010Z,13.02
2023-04-18T10:57:06.295Z,12.84
2023-04-18T10:59:32.603Z,13.12
2023-04-18T11:01:58.991Z,12.78
2023-04-18T11:04:25.366Z,13.22
2023-04-18T11:06:51.740Z,13.09
2023-04-18T11:09:18.045Z,13.38
2023-04-18T11:11:44.352Z,13.19
2023-04-18T11:14:10.614Z,13.16
2023-04-18T11:16:36.892Z,13.28
2023-04-18T11:19:03.160Z,13.13
2023-04-18T11:21:30.616Z,13.18
2023-04-18T11:23:57.184Z,13.33
2023-04-18T11:26:23.500Z,12.82
2023-04-18T11:28:49.767Z,12.95
2023-04-18T11:31:16.028Z,13.19
2023-04-18T11:33:42.289Z,13.52
2023-04-18T11:36:08.557Z,13.56
2023-04-18T11:38:34.801Z,13.39
2023-04-18T11:41:01.055Z,13.60
2023-04-18T11:43:27.309Z,13.87
2023-04-18T11:45:53.580Z,14.19
2023-04-18T11:48:19.851Z,14.44
2023-04-18T11:50:46.095Z,14.48
2023-04-18T11:53:12.341Z,14.03
2023-04-18T11:55:38.577Z,14.65
2023-04-18T11:58:04.842Z,14.69
2023-04-18T12:00:31.130Z,14.11
2023-04-18T12:02:57.563Z,14.42
2023-04-18T12:05:24.458Z,14.46
2023-04-18T12:07:50.929Z,14.33
2023-04-18T12:10:17.398Z,14.35
2023-04-18T12:12:43.645Z,14.22
2023-04-18T12:15:09.906Z,14.38
2023-04-18T12:17:36.215Z,14.32
2023-04-18T12:20:02.520Z,14.49
2023-04-18T12:22:28.791Z,14.82
2023-04-18T12:24:55.050Z,14.90
2023-04-18T12:27:21.328Z,15.45
2023-04-18T12:29:47.563Z,15.78
2023-04-18T12:32:13.804Z,15.24
2023-04-18T12:34:40.120Z,15.29
2023-04-18T12:37:06.410Z,15.16
2023-04-18T12:39:32.707Z,15.39
2023-04-18T12:41:59.010Z,15.66
2023-04-18T12:44:25.289Z,15.55
2023-04-18T12:46:51.618Z,15.55
2023-04-18T12:49:17.953Z,16.09
2023-04-18T12:51:44.179Z,16.47
2023-04-18T12:54:10.436Z,16.79
2023-04-18T12:56:36.671Z,17.00
2023-04-18T12:59:02.986Z,16.56
2023-04-18T13:01:29.472Z,16.40
2023-04-18T13:04:08.366Z,16.27
2023-04-18T13:06:38.468Z,16.72
2023-04-18T13:09:04.728Z,16.33
2023-04-18T13:11:31.086Z,15.80
2023-04-18T13:13:57.366Z,15.83
2023-04-18T13:16:23.678Z,16.03
2023-04-18T13:18:50.058Z,15.84
2023-04-18T13:21:16.363Z,15.72
2023-04-18T13:23:42.614Z,15.47
2023-04-18T13:26:08.851Z,15.32
2023-04-18T13:28:35.125Z,15.42
2023-04-18T13:31:01.395Z,15.47
2023-04-18T13:33:27.668Z,16.02
2023-04-18T13:35:53.955Z,15.40
2023-04-18T13:38:20.263Z,15.90
2023-04-18T13:40:46.491Z,15.88
2023-04-18T13:43:12.767Z,16.27
2023-04-18T13:45:39.059Z,16.43
2023-04-18T13:48:05.395Z,16.38
2023-04-18T13:50:31.687Z,16.18
2023-04-18T13:52:57.925Z,16.09
2023-04-18T13:55:24.179Z,16.00
2023-04-18T13:57:50.454Z,16.13
2023-04-18T14:00:16.788Z,15.71
2023-04-18T14:02:43.134Z,16.17
2023-04-18T14:05:09.589Z,16.21
2023-04-18T14:07:35.863Z,16.87
2023-04-18T14:10:02.209Z,15.74
2023-04-18T14:12:28.506Z,15.64
2023-04-18T14:14:54.747Z,15.72
2023-04-18T14:17:21.124Z,16.39
2023-04-18T14:19:47.440Z,16.56
2023-04-18T14:22:13.672Z,16.78
2023-04-18T14:24:39.989Z,16.64
2023-04-18T14:27:06.243Z,16.28
2023-04-18T14:29:32.488Z,16.42
2023-04-18T14:31:58.729Z,16.33
2023-04-18T14:34:25.004Z,16.53
2023-04-18T14:36:51.276Z,16.89
2023-04-18T14:39:17.535Z,16.08
2023-04-18T14:41:43.800Z,16.42
2023-04-18T14:44:10.133Z,16.63
2023-04-18T14:46:36.395Z,16.84
2023-04-18T14:49:02.656Z,16.73
2023-04-18T14:51:28.879Z,16.42
2023-04-18T14:53:55.106Z,16.24
2023-04-18T14:56:21.343Z,16.00
2023-04-18T14:58:47.601Z,16.37
2023-04-18T15:01:13.864Z,16.74
2023-04-18T15:03:40.302Z,16.50
2023-04-18T15:06:06.654Z,16.91
2023-04-18T15:08:33.035Z,17.16
2023-04-18T15:10:59.324Z,16.86
2023-04-18T15:13:25.573Z,16.59
2023-04-18T15:15:51.846Z,16.36
2023-04-18T15:18:18.186Z,16.01
2023-04-18T15:20:44.505Z,16.72
2023-04-18T15:23:10.768Z,16.08
2023-04-18T15:25:37.052Z,16.08
2023-04-18T15:28:03.321Z,15.78
2023-04-18T15:30:29.593Z,16.03
2023-04-18T15:32:55.875Z,15.87
2023-04-18T15:35:22.130Z,15.83
2023-04-18T15:37:48.411Z,16.08
2023-04-18T15:40:14.702Z,15.79
2023-04-18T15:42:40.944Z,15.33
2023-04-18T15:45:07.201Z,15.66
2023-04-18T15:47:33.440Z,15.84
2023-04-18T15:49:59.708Z,16.12
2023-04-18T15:52:25.939Z,15.54
2023-04-18T15:54:52.189Z,15.66
2023-04-18T15:57:18.433Z,15.95
2023-04-18T15:59:44.577Z,15.47
2023-04-18T16:02:10.846Z,15.64
2023-04-18T16:04:39.816Z,15.95
2023-04-18T16:07:06.070Z,16.29
2023-04-18T16:09:32.330Z,16.35
2023-04-18T16:11:58.578Z,16.17
2023-04-18T16:14:24.811Z,15.99
2023-04-18T16:16:51.075Z,15.57
2023-04-18T16:19:17.651Z,15.29
2023-04-18T16:21:43.893Z,16.14
2023-04-18T16:24:10.136Z,15.51
2023-04-18T16:26:36.385Z,15.11
2023-04-18T16:29:02.622Z,15.19
2023-04-18T16:31:28.896Z,15.21
2023-04-18T16:33:55.368Z,15.39
2023-04-18T16:36:21.706Z,15.24
2023-04-18T16:38:47.947Z,15.10
2023-04-18T16:41:14.196Z,15.38
2023-04-18T16:43:40.436Z,15.26
2023-04-18T16:46:06.736Z,15.09
2023-04-18T16:48:33.060Z,14.44
2023-04-18T16:50:59.336Z,13.81
2023-04-18T16:53:25.577Z,13.87
2023-04-18T16:55:51.801Z,14.30
2023-04-18T16:58:18.090Z,14.08
2023-04-18T17:00:44.350Z,14.39
2023-04-18T17:03:10.782Z,14.02
2023-04-18T17:05:37.112Z,14.32
2023-04-18T17:08:03.379Z,14.01
2023-04-18T17:10:29.652Z,14.08
2023-04-18T17:12:55.987Z,14.07
2023-04-18T17:15:22.230Z,13.95
2023-04-18T17:17:49.494Z,14.11
2023-04-18T17:20:15.770Z,14.24
2023-04-18T17:22:41.977Z,14.10
2023-04-18T17:25:08.215Z,13.82
2023-04-18T17:27:34.460Z,14.29
2023-04-18T17:30:00.761Z,14.00
2023-04-18T17:32:27.125Z,13.87
2023-04-18T17:34:53.409Z,13.67
2023-04-18T17:37:19.697Z,13.91
2023-04-18T17:39:45.948Z,13.97
2023-04-18T17:42:12.221Z,14.18
2023-04-18T17:44:38.458Z,14.01
2023-04-18T17:47:04.732Z,13.62
2023-04-18T17:49:30.968Z,13.54
2023-04-18T17:51:57.193Z,13.51
2023-04-18T17:54:23.431Z,13.48
2023-04-18T17:56:49.671Z,13.44
2023-04-18T17:59:16.054Z,13.38
2023-04-18T18:01:42.377Z,12.94
2023-04-18T18:04:08.732Z,12.85
2023-04-18T18:06:35.002Z,12.69
2023-04-18T18:09:01.337Z,12.86
2023-04-18T18:11:27.662Z,12.80
2023-04-18T18:13:53.910Z,12.43
2023-04-18T18:16:20.180Z,12.36
2023-04-18T18:18:46.428Z,12.28
2023-04-18T18:21:12.674Z,12.25
2023-04-18T18:23:38.908Z,11.84
2023-04-18T18:26:05.197Z,11.54
2023-04-18T18:28:31.495Z,11.30
2023-04-18T18:30:57.803Z,11.07
2023-04-18T18:33:24.089Z,11.05
2023-04-18T18:35:50.347Z,10.86
2023-04-18T18:38:16.582Z,10.62
2023-04-18T18:40:42.826Z,10.82
2023-04-18T18:43:09.078Z,10.62
2023-04-18T18:45:35.317Z,10.61
2023-04-18T18:48:01.565Z,10.43
2023-04-18T18:50:27.823Z,10.71
2023-04-18T18:52:54.059Z,10.48
2023-04-18T18:55:20.305Z,10.23
2023-04-18T18:57:46.537Z,10.25
2023-04-18T19:00:12.774Z,10.21
2023-04-18T19:02:39.339Z,10.27
2023-04-18T19:05:05.850Z,10.73
2023-04-18T19:07:32.080Z,10.99
2023-04-18T19:09:58.331Z,11.14
2023-04-18T19:12:24.585Z,10.96
2023-04-18T19:14:50.859Z,10.78
2023-04-18T19:23:58.751Z,10.58
2023-04-18T19:26:25.002Z,10.61
2023-04-18T19:28:51.319Z,10.55
2023-04-18T19:31:17.595Z,10.63
2023-04-18T19:33:43.852Z,10.56
2023-04-18T19:36:10.074Z,10.58
2023-04-18T19:38:36.309Z,10.97
2023-04-18T19:41:02.542Z,11.40
2023-04-18T19:43:28.806Z,11.55
2023-04-18T19:45:55.354Z,11.53
2023-04-18T19:48:22.094Z,11.48
2023-04-18T19:50:48.347Z,11.07
2023-04-18T19:53:14.600Z,11.41
2023-04-18T19:55:40.837Z,11.52
2023-04-18T19:58:07.078Z,10.99
2023-04-18T20:00:33.321Z,10.54
2023-04-18T20:02:59.875Z,10.39
2023-04-18T20:05:26.303Z,10.03
2023-04-18T20:07:52.658Z,9.61
2023-04-18T20:10:18.917Z,9.76
2023-04-18T20:12:45.187Z,9.79
2023-04-18T20:15:11.429Z,9.70
2023-04-18T20:17:37.728Z,9.47
2023-04-18T20:20:03.984Z,9.68
2023-04-18T20:22:30.341Z,9.60
2023-04-18T20:24:56.557Z,9.70
2023-04-18T20:27:22.807Z,9.86
2023-04-18T20:29:49.060Z,9.84
2023-04-18T20:32:15.316Z,9.80
2023-04-18T20:34:41.581Z,9.69
2023-04-18T20:37:07.819Z,9.17
2023-04-18T20:39:34.072Z,9.06
2023-04-18T20:42:00.309Z,9.24
2023-04-18T20:44:26.547Z,9.30
2023-04-18T20:46:52.778Z,9.53
2023-04-18T20:49:19.027Z,9.57
2023-04-18T20:51:45.265Z,9.80
2023-04-18T20:54:11.494Z,10.01
2023-04-18T20:56:37.748Z,10.00
2023-04-18T20:59:04.013Z,10.21
2023-04-18T21:01:30.340Z,9.75
2023-04-18T21:03:56.923Z,9.67
2023-04-18T21:06:23.293Z,9.31
2023-04-18T21:08:49.536Z,8.79
2023-04-18T21:11:15.802Z,8.43
2023-04-18T21:13:42.053Z,8.48
2023-04-18T21:16:08.384Z,8.46
2023-04-18T21:18:34.675Z,8.45
2023-04-18T21:21:00.935Z,8.51
2023-04-18T21:23:27.170Z,8.58
2023-04-18T21:25:53.427Z,8.52
2023-04-18T21:28:19.680Z,8.59
2023-04-18T21:30:45.907Z,8.58
2023-04-18T21:33:12.176Z,8.40
2023-04-18T21:35:38.425Z,8.27
2023-04-18T21:38:04.678Z,8.42
2023-04-18T21:40:30.924Z,8.50
2023-04-18T21:42:57.165Z,8.69
2023-04-18T21:45:23.458Z,8.98
2023-04-18T21:47:49.814Z,8.42
2023-04-18T21:50:16.138Z,8.62
2023-04-18T21:52:42.359Z,8.95
2023-04-18T21:55:08.599Z,8.95
2023-04-18T21:57:34.854Z,9.01
2023-04-18T22:00:01.128Z,8.91
2023-04-18T22:02:27.507Z,9.16
2023-04-18T22:04:53.871Z,9.36
2023-04-18T22:07:20.138Z,8.90
2023-04-18T22:09:46.544Z,8.68
2023-04-18T22:12:12.845Z,8.57
2023-04-18T22:14:39.081Z,8.82
2023-04-18T22:17:05.309Z,9.14
2023-04-18T22:19:31.535Z,8.81
2023-04-18T22:21:57.755Z,8.65
2023-04-18T22:24:24.008Z,8.69
2023-04-18T22:26:50.258Z,8.94
2023-04-18T22:29:16.475Z,9.23
2023-04-18T22:31:42.702Z,9.26
2023-04-18T22:34:08.946Z,9.29
2023-04-18T22:36:35.192Z,9.25
2023-04-18T22:39:01.472Z,9.10
2023-04-18T22:41:27.720Z,8.91
2023-04-18T22:43:53.999Z,8.70
2023-04-18T22:46:20.302Z,8.54
2023-04-18T22:48:46.552Z,8.46
2023-04-18T22:51:12.798Z,8.34
2023-04-18T22:53:39.020Z,8.43
2023-04-18T22:56:05.255Z,8.53
2023-04-18T22:58:31.550Z,8.71
2023-04-18T23:00:57.829Z,8.53
2023-04-18T23:03:24.200Z,7.96
2023-04-18T23:05:50.592Z,8.19
2023-04-18T23:08:16.845Z,7.96
2023-04-18T23:10:43.081Z,7.93
2023-04-18T23:13:09.354Z,7.89
2023-04-18T23:15:35.715Z,8.12
2023-04-18T23:18:02.066Z,8.39
2023-04-18T23:20:28.363Z,8.19
2023-04-18T23:22:54.643Z,8.12
2023-04-18T23:25:20.919Z,8.00
2023-04-18T23:27:47.172Z,8.18
2023-04-18T23:30:13.418Z,7.72
2023-04-18T23:32:39.709Z,7.64
2023-04-18T23:35:05.998Z,8.05
2023-04-18T23:37:32.263Z,8.19
2023-04-18T23:39:58.496Z,8.31
2023-04-18T23:42:24.712Z,8.40
2023-04-18T23:44:50.937Z,8.36
2023-04-18T23:47:17.338Z,8.63
2023-04-18T23:49:43.719Z,8.81
2023-04-18T23:52:09.969Z,8.31
2023-04-18T23:54:36.200Z,7.94
2023-04-18T23:57:02.499Z,7.78
2023-04-18T23:59:28.775Z,7.98
